Dellroy, Ohio
Current Conditions -  °F | °C
As of 2:07 PM on Friday 31 Oct 2014 (Local Time) from KPHD Reporting Station
Overcast Overcast  
Wind Chill: 44°   Ceiling: 2300
Heat Index: 47°   Visibility: 10mi
Dew Point: 38°   Wind: 6mph
Humidity: 71%   Direction: 130°SE
Pressure: 29.88"   Gusts: NA
Location:  40.55°N, 81.2°W
Report Text: KPHD 311807Z AUTO 13005KT 10SM BKN023 OVC036 08/03 A2988 RMK AO2 T00830033
Loading
Personal Weather Stations






























Interactive Weather Map
Tropical Storm Tracking
New forecast layout! Learn more

10-Day Weather Forecast

Advertisements
Track Severe Weather on mobile